Royal — WDD3653 — position and weather

sailwx.info

Track history (hours):
 
Tides and Currents Weather Stations Pressure Air Temp Water Temp Dewpoint Dewpoint Depression Visibility Wind Speed Wind Dir Waves Ship Positions

Royal

Owner: GulfMark Americas, Inc., Saint Rose, LA. More information available from US FCC via Universal Licensing System and Coast Guard Vessel Documentation Center.

Last reported at 2017-Oct-08 16:21 UTC. Time now 2017-Nov-24 00:12 UTC.
Position N 29°22' W 090°44'.
Warning: this ship's position is 46 days out of date.

Length 64 m; draft 4.3 m.

Type: Cargo ship. MMSI: 366964490.

Date/timePositionNaut miles runAvg speedWind from/ knotsBaromVisibWave heightAir tempDewpointWater temp
2017-Oct-08 16:21N 29°22' W 090°44'2 6.0
2017-Oct-08 16:00N 29°24' W 090°44'3 6.6
2017-Oct-08 15:30N 29°28' W 090°43'3 6.6
2017-Oct-08 15:00N 29°31' W 090°43'3 5.6
2017-Oct-08 14:30N 29°34' W 090°43'1 1.9
2017-Oct-08 14:00N 29°34' W 090°44'3 5.4
2017-Oct-08 13:30N 29°32' W 090°46'3 6.5
2017-Oct-08 13:00N 29°32' W 090°50'4 6.2
2017-Oct-08 12:22N 29°33' W 090°54'5 0.1
2017-Oct-07 03:18N 29°36' W 090°59'2 6.2
2017-Oct-07 02:55N 29°34' W 090°57'3 6.8
2017-Oct-07 02:28N 29°33' W 090°54'3 6.5
2017-Oct-07 02:00N 29°32' W 090°50'3 6.8
2017-Oct-07 01:30N 29°32' W 090°47'3 5.6
2017-Oct-07 01:00N 29°34' W 090°44'1 2.2
2017-Oct-07 00:30N 29°34' W 090°43'1 2.9
2017-Oct-07 00:00N 29°33' W 090°42'3 6.8
2017-Oct-06 23:30N 29°29' W 090°43'3 6.7
2017-Oct-06 23:00N 29°26' W 090°43'3 6.2
2017-Oct-06 22:30N 29°23' W 090°44'3 5.2
2017-Oct-06 21:53N 29°20' W 090°44'  
Track history (hours):
 
Tides and Currents Weather Stations Pressure Air Temp Water Temp Dewpoint Dewpoint Depression Visibility Wind Speed Wind Dir Waves Ship Positions

Royal

Owner: GulfMark Americas, Inc., Saint Rose, LA. More information available from US FCC via Universal Licensing System and Coast Guard Vessel Documentation Center.

Last reported at 2017-Oct-08 16:21 UTC. Time now 2017-Nov-24 00:12 UTC.
Position N 29°22' W 090°44'.
Warning: this ship's position is 46 days out of date.

Length 64 m; draft 4.3 m.

Type: Cargo ship. MMSI: 366964490.

Date/timePositionNaut miles runAvg speedWind from/ knotsBaromVisibWave heightAir tempDewpointWater temp
2017-Oct-08 16:21N 29°22' W 090°44'2 6.0
2017-Oct-08 16:00N 29°24' W 090°44'3 6.6
2017-Oct-08 15:30N 29°28' W 090°43'3 6.6
2017-Oct-08 15:00N 29°31' W 090°43'3 5.6
2017-Oct-08 14:30N 29°34' W 090°43'1 1.9
2017-Oct-08 14:00N 29°34' W 090°44'3 5.4
2017-Oct-08 13:30N 29°32' W 090°46'3 6.5
2017-Oct-08 13:00N 29°32' W 090°50'4 6.2
2017-Oct-08 12:22N 29°33' W 090°54'5 0.1
2017-Oct-07 03:18N 29°36' W 090°59'2 6.2
2017-Oct-07 02:55N 29°34' W 090°57'3 6.8
2017-Oct-07 02:28N 29°33' W 090°54'3 6.5
2017-Oct-07 02:00N 29°32' W 090°50'3 6.8
2017-Oct-07 01:30N 29°32' W 090°47'3 5.6
2017-Oct-07 01:00N 29°34' W 090°44'1 2.2
2017-Oct-07 00:30N 29°34' W 090°43'1 2.9
2017-Oct-07 00:00N 29°33' W 090°42'3 6.8
2017-Oct-06 23:30N 29°29' W 090°43'3 6.7
2017-Oct-06 23:00N 29°26' W 090°43'3 6.2
2017-Oct-06 22:30N 29°23' W 090°44'3 5.2
2017-Oct-06 21:53N 29°20' W 090°44'  

Dump ship's entire track history